Time;durP1;ratioP1;P1;durP2;ratioP2;P2;SDS_P1;SDS_P2;PMS_P1;PMS_P2;Temp;Humidity;BMP_temperature;BMP_pressure;BME280_temperature;BME280_humidity;BME280_pressure;Samples;Min_cycle;Max_cycle;Signal;HPM_P1;HPM_P2
2023/11/20 00:01:05;;;;;;;11.25;3.45;;;;;;;;;;4920433;29;20043;-83
2023/11/20 00:03:50;;;;;;;12.23;2.85;;;;;;;;;;4929554;29;20522;-83
2023/11/20 00:06:36;;;;;;;13.52;2.85;;;;;;;;;;4927802;29;20059;-83
2023/11/20 00:09:21;;;;;;;12.40;4.22;;;;;;;;;;4914649;29;20178;-83
2023/11/20 00:12:06;;;;;;;15.23;3.15;;;;;;;;;;4924681;29;20452;-82
2023/11/20 00:14:51;;;;;;;10.60;2.72;;;;;;;;;;4918769;29;20091;-80
2023/11/20 00:17:37;;;;;;;9.80;2.63;;;;;;;;;;4922866;29;20134;-80
2023/11/20 00:20:23;;;;;;;11.93;4.82;;;;;;;;;;4927986;29;20059;-80
2023/11/20 00:23:08;;;;;;;9.27;2.95;;;;;;;;;;4921575;29;20548;-82
2023/11/20 00:25:55;;;;;;;12.65;2.08;;;;;;;;;;4922456;29;20036;-81
2023/11/20 00:28:41;;;;;;;16.92;3.80;;;;;;;;;;4921509;29;20024;-81
2023/11/20 00:31:27;;;;;;;12.27;2.92;;;;;;;;;;4905060;29;20467;-83
2023/11/20 00:34:12;;;;;;;14.02;3.55;;;;;;;;;;4925399;29;20103;-82
2023/11/20 00:36:57;;;;;;;11.10;3.03;;;;;;;;;;4917835;29;20689;-82
2023/11/20 00:39:42;;;;;;;11.80;2.97;;;;;;;;;;4929787;29;20529;-82
2023/11/20 00:42:28;;;;;;;11.40;2.65;;;;;;;;;;4925244;29;20398;-82
2023/11/20 00:45:13;;;;;;;14.07;3.55;;;;;;;;;;4919750;29;20028;-83
2023/11/20 00:47:58;;;;;;;11.10;3.55;;;;;;;;;;4930670;29;20051;-83
2023/11/20 00:50:43;;;;;;;8.68;2.08;;;;;;;;;;4930782;29;20031;-83
2023/11/20 00:53:28;;;;;;;9.68;2.90;;;;;;;;;;4922791;29;20024;-83
2023/11/20 00:56:16;;;;;;;18.95;3.15;;;;;;;;;;4927754;29;20191;-84
2023/11/20 00:59:03;;;;;;;16.55;3.50;;;;;;;;;;4928602;29;20058;-83
2023/11/20 01:01:48;;;;;;;10.48;2.58;;;;;;;;;;4923347;29;20027;-82
2023/11/20 01:04:34;;;;;;;8.73;2.25;;;;;;;;;;4923293;29;20028;-83
2023/11/20 01:07:20;;;;;;;14.85;3.38;;;;;;;;;;4925609;29;20384;-83
2023/11/20 01:10:05;;;;;;;13.00;3.22;;;;;;;;;;4917447;29;20144;-83
2023/11/20 01:12:51;;;;;;;7.90;2.10;;;;;;;;;;4921924;29;20038;-82
2023/11/20 01:15:36;;;;;;;13.07;2.50;;;;;;;;;;4925207;29;20028;-82
2023/11/20 01:18:21;;;;;;;11.30;2.75;;;;;;;;;;4915632;29;20566;-82
2023/11/20 01:21:08;;;;;;;8.10;2.35;;;;;;;;;;4924221;29;20050;-81
2023/11/20 01:23:54;;;;;;;9.63;2.45;;;;;;;;;;4926548;29;20537;-81
2023/11/20 01:26:39;;;;;;;13.55;2.92;;;;;;;;;;4917462;29;20114;-83
2023/11/20 01:29:24;;;;;;;15.15;3.28;;;;;;;;;;4921492;29;20094;-82
2023/11/20 01:32:09;;;;;;;11.02;2.47;;;;;;;;;;4925136;29;20028;-82
2023/11/20 01:34:54;;;;;;;5.85;1.75;;;;;;;;;;4929906;29;20023;-82
2023/11/20 01:37:40;;;;;;;11.60;2.80;;;;;;;;;;4924200;29;20034;-83
2023/11/20 01:40:25;;;;;;;12.85;3.45;;;;;;;;;;4923964;29;20146;-83
2023/11/20 01:43:11;;;;;;;11.65;3.33;;;;;;;;;;4923711;29;20035;-82
2023/11/20 01:45:59;;;;;;;10.35;3.33;;;;;;;;;;4922701;29;20034;-83
2023/11/20 01:48:45;;;;;;;8.77;3.00;;;;;;;;;;4921135;29;20024;-82
2023/11/20 01:51:31;;;;;;;13.65;2.72;;;;;;;;;;4920654;29;20035;-83
2023/11/20 01:54:16;;;;;;;13.80;3.25;;;;;;;;;;4923663;29;20039;-81
2023/11/20 01:57:03;;;;;;;15.55;4.05;;;;;;;;;;4926465;29;20463;-83
2023/11/20 01:59:48;;;;;;;14.20;2.30;;;;;;;;;;4922251;29;20063;-83
2023/11/20 02:02:34;;;;;;;14.50;3.92;;;;;;;;;;4925821;29;20034;-82
2023/11/20 02:05:20;;;;;;;6.22;2.13;;;;;;;;;;4925055;29;20050;-82
2023/11/20 02:08:05;;;;;;;8.10;2.80;;;;;;;;;;4926818;29;20114;-82
2023/11/20 02:10:50;;;;;;;13.88;2.65;;;;;;;;;;4924692;29;20048;-82
2023/11/20 02:13:35;;;;;;;11.60;3.25;;;;;;;;;;4923312;29;20032;-83
2023/11/20 02:16:21;;;;;;;8.65;2.78;;;;;;;;;;4920940;29;20043;-83
2023/11/20 02:19:13;;;;;;;9.02;2.95;;;;;;;;;;4922562;29;20039;-83
2023/11/20 02:21:58;;;;;;;16.90;2.78;;;;;;;;;;4928065;29;20144;-84
2023/11/20 02:24:45;;;;;;;10.43;3.22;;;;;;;;;;4921407;29;20044;-83
2023/11/20 02:27:56;;;;;;;15.02;3.05;;;;;;;;;;4912595;29;20462;-83
2023/11/20 02:30:42;;;;;;;9.43;2.30;;;;;;;;;;4919097;29;20032;-82
2023/11/20 02:33:27;;;;;;;13.95;3.75;;;;;;;;;;4924552;29;20032;-82
2023/11/20 02:36:12;;;;;;;10.60;2.45;;;;;;;;;;4915026;29;20444;-82
2023/11/20 02:38:57;;;;;;;9.73;2.75;;;;;;;;;;4927839;29;20853;-82
2023/11/20 02:41:45;;;;;;;9.95;2.92;;;;;;;;;;4940912;28;20020;-82
2023/11/20 02:44:31;;;;;;;12.43;2.70;;;;;;;;;;4925790;29;20103;-83
2023/11/20 02:47:16;;;;;;;14.13;3.03;;;;;;;;;;4920033;29;20067;-83
2023/11/20 02:50:01;;;;;;;11.32;2.45;;;;;;;;;;4923642;29;20027;-83
2023/11/20 02:52:47;;;;;;;12.07;2.38;;;;;;;;;;4927402;29;20106;-82
2023/11/20 02:55:32;;;;;;;9.13;2.60;;;;;;;;;;4924384;29;20566;-81
2023/11/20 02:58:17;;;;;;;9.15;3.00;;;;;;;;;;4918258;29;20028;-80
2023/11/20 03:01:04;;;;;;;13.32;3.30;;;;;;;;;;4918392;29;20035;-81
2023/11/20 03:03:49;;;;;;;9.05;2.72;;;;;;;;;;4936373;28;20784;-81
2023/11/20 03:06:35;;;;;;;15.05;3.60;;;;;;;;;;4924004;29;20470;-82
2023/11/20 03:09:20;;;;;;;6.07;1.80;;;;;;;;;;4924174;29;20119;-82
2023/11/20 03:12:05;;;;;;;11.93;2.88;;;;;;;;;;4926664;29;20457;-82
2023/11/20 03:14:51;;;;;;;10.00;2.67;;;;;;;;;;4925012;29;20530;-82
2023/11/20 03:17:36;;;;;;;10.70;3.03;;;;;;;;;;4929233;29;20395;-83
2023/11/20 03:20:21;;;;;;;12.23;2.35;;;;;;;;;;4926581;29;20443;-84
2023/11/20 03:23:07;;;;;;;14.82;2.53;;;;;;;;;;4925771;29;20024;-83
2023/11/20 03:25:52;;;;;;;9.32;2.47;;;;;;;;;;4928671;29;20032;-82
2023/11/20 03:28:38;;;;;;;12.13;2.53;;;;;;;;;;4923457;29;20028;-83
2023/11/20 03:31:23;;;;;;;19.48;3.80;;;;;;;;;;4924549;29;20019;-82
2023/11/20 03:34:08;;;;;;;11.60;2.53;;;;;;;;;;4920403;29;20038;-82
2023/11/20 03:36:55;;;;;;;12.27;2.85;;;;;;;;;;4927808;29;20019;-82
2023/11/20 03:39:41;;;;;;;12.10;2.83;;;;;;;;;;4942733;28;20020;-83
2023/11/20 03:42:26;;;;;;;12.15;2.85;;;;;;;;;;4922738;29;20076;-83
2023/11/20 03:45:11;;;;;;;7.35;2.38;;;;;;;;;;4919416;29;20640;-83
2023/11/20 03:47:56;;;;;;;15.18;3.10;;;;;;;;;;4927920;29;20035;-83
2023/11/20 03:50:42;;;;;;;8.70;2.45;;;;;;;;;;4928320;29;20032;-82
2023/11/20 03:53:27;;;;;;;11.77;2.88;;;;;;;;;;4924253;29;20063;-84
2023/11/20 03:56:12;;;;;;;7.53;2.28;;;;;;;;;;4923888;29;20038;-83
2023/11/20 03:58:58;;;;;;;10.88;2.53;;;;;;;;;;4920478;29;20573;-83
2023/11/20 04:01:43;;;;;;;10.18;2.45;;;;;;;;;;4944336;29;20410;-84
2023/11/20 04:04:28;;;;;;;10.93;2.60;;;;;;;;;;4926841;29;20036;-83
2023/11/20 04:07:13;;;;;;;10.93;3.60;;;;;;;;;;4928569;29;20116;-82
2023/11/20 04:09:59;;;;;;;10.02;2.88;;;;;;;;;;4930149;29;20040;-84
2023/11/20 04:12:44;;;;;;;9.98;2.58;;;;;;;;;;4937600;29;20051;-84
2023/11/20 04:15:29;;;;;;;9.80;2.72;;;;;;;;;;4931302;29;20035;-84
2023/11/20 04:18:15;;;;;;;16.23;2.85;;;;;;;;;;4937052;29;20059;-84
2023/11/20 04:21:00;;;;;;;16.08;2.65;;;;;;;;;;4936739;29;20020;-84
2023/11/20 04:23:46;;;;;;;6.18;2.20;;;;;;;;;;4921902;29;20617;-83
2023/11/20 04:26:31;;;;;;;7.78;2.33;;;;;;;;;;4929989;29;20044;-83
2023/11/20 04:29:16;;;;;;;15.25;3.92;;;;;;;;;;4931286;29;20875;-84
2023/11/20 04:32:01;;;;;;;13.05;3.95;;;;;;;;;;4915508;29;20031;-84
2023/11/20 04:34:47;;;;;;;11.88;2.47;;;;;;;;;;4925671;29;20035;-83
2023/11/20 04:37:32;;;;;;;13.15;2.65;;;;;;;;;;4931982;29;20031;-83
2023/11/20 04:40:17;;;;;;;10.73;2.38;;;;;;;;;;4927292;29;20028;-84
2023/11/20 04:43:02;;;;;;;10.40;2.35;;;;;;;;;;4932557;29;20102;-83
2023/11/20 04:45:48;;;;;;;19.63;3.60;;;;;;;;;;4938947;29;20042;-83
2023/11/20 04:48:33;;;;;;;7.22;2.10;;;;;;;;;;4935619;29;20150;-82
2023/11/20 04:51:19;;;;;;;10.25;2.92;;;;;;;;;;4926603;29;21668;-82
2023/11/20 04:54:04;;;;;;;6.95;2.05;;;;;;;;;;4931209;29;20098;-82
2023/11/20 04:56:49;;;;;;;9.05;2.55;;;;;;;;;;4931622;29;20115;-83
2023/11/20 04:59:37;;;;;;;13.85;2.95;;;;;;;;;;4931087;29;20023;-83
2023/11/20 05:02:25;;;;;;;8.35;2.42;;;;;;;;;;4927137;29;20038;-82
2023/11/20 05:05:10;;;;;;;7.68;2.08;;;;;;;;;;4939044;29;20027;-82
2023/11/20 05:07:56;;;;;;;10.15;2.10;;;;;;;;;;4940929;29;20079;-83
2023/11/20 05:10:41;;;;;;;12.38;3.28;;;;;;;;;;4932786;29;20114;-82
2023/11/20 05:13:26;;;;;;;12.77;2.90;;;;;;;;;;4937688;29;20447;-82
2023/11/20 05:16:11;;;;;;;12.48;2.70;;;;;;;;;;4932709;29;20034;-81
2023/11/20 05:18:56;;;;;;;9.52;2.42;;;;;;;;;;4928295;29;20419;-82
2023/11/20 05:21:47;;;;;;;15.55;4.07;;;;;;;;;;4933768;29;20035;-83
2023/11/20 05:24:32;;;;;;;9.73;2.78;;;;;;;;;;4941074;29;20031;-83
2023/11/20 05:27:18;;;;;;;11.80;3.60;;;;;;;;;;4934966;29;20031;-82
2023/11/20 05:30:07;;;;;;;11.43;2.45;;;;;;;;;;4939859;29;20655;-80
2023/11/20 05:32:52;;;;;;;9.35;3.22;;;;;;;;;;4937316;29;20031;-82
2023/11/20 05:35:38;;;;;;;10.07;3.28;;;;;;;;;;4937288;29;20032;-83
2023/11/20 05:38:24;;;;;;;6.80;2.33;;;;;;;;;;4931305;29;20114;-82
2023/11/20 05:41:09;;;;;;;16.95;3.40;;;;;;;;;;4944680;29;20082;-83
2023/11/20 05:43:54;;;;;;;11.30;2.55;;;;;;;;;;4943962;29;20122;-83
2023/11/20 05:46:40;;;;;;;11.38;2.47;;;;;;;;;;4934397;29;20090;-83
2023/11/20 05:49:25;;;;;;;8.68;2.17;;;;;;;;;;4945681;29;20760;-83
2023/11/20 05:52:10;;;;;;;10.70;2.00;;;;;;;;;;4945785;28;20066;-83
2023/11/20 05:54:55;;;;;;;8.02;2.05;;;;;;;;;;4930477;29;20032;-83
2023/11/20 05:57:41;;;;;;;12.02;3.63;;;;;;;;;;4934988;29;20024;-82
2023/11/20 06:00:26;;;;;;;16.55;2.50;;;;;;;;;;4941092;29;20235;-82
2023/11/20 06:03:12;;;;;;;10.15;2.00;;;;;;;;;;4932137;29;20356;-83
2023/11/20 06:05:57;;;;;;;10.23;3.00;;;;;;;;;;4931432;29;20039;-84
2023/11/20 06:08:42;;;;;;;10.15;2.50;;;;;;;;;;4940972;29;20035;-84
2023/11/20 06:11:27;;;;;;;12.30;3.50;;;;;;;;;;4933903;29;20031;-82
2023/11/20 06:14:13;;;;;;;8.70;2.72;;;;;;;;;;4937971;29;20052;-83
2023/11/20 06:16:58;;;;;;;7.75;2.42;;;;;;;;;;4933326;29;20032;-81
2023/11/20 06:19:44;;;;;;;15.38;3.40;;;;;;;;;;4926863;29;20122;-82
2023/11/20 06:22:29;;;;;;;8.50;2.85;;;;;;;;;;4927402;29;20028;-83
2023/11/20 06:25:15;;;;;;;12.38;4.35;;;;;;;;;;4926944;29;20061;-82
2023/11/20 06:28:00;;;;;;;10.00;2.38;;;;;;;;;;4916170;29;20036;-83
2023/11/20 06:30:45;;;;;;;12.18;2.90;;;;;;;;;;4924753;29;20040;-82
2023/11/20 06:33:30;;;;;;;11.65;2.72;;;;;;;;;;4926911;29;20023;-80
2023/11/20 06:36:16;;;;;;;11.85;2.63;;;;;;;;;;4927664;29;20039;-82
2023/11/20 06:39:05;;;;;;;8.05;2.08;;;;;;;;;;4929567;29;20031;-83
2023/11/20 06:41:50;;;;;;;12.05;2.30;;;;;;;;;;4935874;29;20027;-83
2023/11/20 06:44:38;;;;;;;13.48;2.80;;;;;;;;;;4927378;29;20047;-86
2023/11/20 06:47:24;;;;;;;9.88;2.22;;;;;;;;;;4913698;29;20031;-85
2023/11/20 06:50:09;;;;;;;8.55;2.63;;;;;;;;;;4917485;29;20538;-87
2023/11/20 06:52:54;;;;;;;10.35;2.78;;;;;;;;;;4930902;29;20387;-83
2023/11/20 06:59:07;;;;;;;8.15;3.15;;;;;;;;;;4845730;29;20504;-83
2023/11/20 07:01:52;;;;;;;9.18;2.85;;;;;;;;;;4850654;29;20586;-83
2023/11/20 07:04:38;;;;;;;15.52;3.40;;;;;;;;;;4900499;29;20035;-84
2023/11/20 07:07:24;;;;;;;10.23;2.45;;;;;;;;;;4922862;29;20036;-82
2023/11/20 07:10:13;;;;;;;10.43;2.30;;;;;;;;;;4924291;29;20342;-83
2023/11/20 07:12:59;;;;;;;9.77;2.88;;;;;;;;;;4931403;29;20497;-84
2023/11/20 07:15:44;;;;;;;9.38;3.30;;;;;;;;;;4926886;29;20044;-85
2023/11/20 07:18:29;;;;;;;9.43;2.85;;;;;;;;;;4924382;29;20095;-83
2023/11/20 07:21:15;;;;;;;8.70;2.40;;;;;;;;;;4924295;29;20062;-85
2023/11/20 07:24:01;;;;;;;11.65;2.22;;;;;;;;;;4926105;29;20024;-84
2023/11/20 07:26:46;;;;;;;8.32;2.90;;;;;;;;;;4924381;29;20095;-84
2023/11/20 07:29:32;;;;;;;14.48;2.90;;;;;;;;;;4924661;29;20035;-83
2023/11/20 07:32:17;;;;;;;14.07;2.55;;;;;;;;;;4923279;29;20039;-84
2023/11/20 07:35:03;;;;;;;15.38;3.30;;;;;;;;;;4925559;29;20040;-84
2023/11/20 07:37:48;;;;;;;10.82;2.47;;;;;;;;;;4925225;29;20027;-81
2023/11/20 07:40:33;;;;;;;15.50;3.05;;;;;;;;;;4923773;29;20031;-81
2023/11/20 07:43:18;;;;;;;15.15;2.60;;;;;;;;;;4937478;29;20167;-78
2023/11/20 07:46:04;;;;;;;11.30;2.70;;;;;;;;;;4935890;29;20051;-82
2023/11/20 07:48:50;;;;;;;13.75;3.45;;;;;;;;;;4946479;29;20039;-82
2023/11/20 07:51:36;;;;;;;10.73;2.63;;;;;;;;;;4948096;28;20091;-80
2023/11/20 07:54:21;;;;;;;13.63;2.25;;;;;;;;;;4952022;29;20012;-87
2023/11/20 07:57:08;;;;;;;8.70;1.90;;;;;;;;;;4963951;28;20030;-86
2023/11/20 07:59:53;;;;;;;11.57;2.38;;;;;;;;;;4946649;29;20032;-86
2023/11/20 08:02:38;;;;;;;13.25;2.85;;;;;;;;;;4943837;29;20130;-86
2023/11/20 08:05:23;;;;;;;24.20;2.97;;;;;;;;;;4950218;29;20020;-85
2023/11/20 08:08:08;;;;;;;10.40;2.75;;;;;;;;;;4940713;29;20047;-85
2023/11/20 08:10:54;;;;;;;8.40;3.00;;;;;;;;;;4924411;29;20126;-85
2023/11/20 08:13:39;;;;;;;10.00;2.45;;;;;;;;;;4938138;29;20024;-86
2023/11/20 08:16:24;;;;;;;11.43;2.78;;;;;;;;;;4927668;29;20023;-84
2023/11/20 08:19:09;;;;;;;13.65;2.53;;;;;;;;;;4924111;29;20047;-85
2023/11/20 08:21:55;;;;;;;13.23;2.63;;;;;;;;;;4925730;29;20086;-83
2023/11/20 08:24:42;;;;;;;9.10;2.03;;;;;;;;;;4930419;29;20086;-86
2023/11/20 08:27:28;;;;;;;7.78;2.33;;;;;;;;;;4919737;29;20859;-85
2023/11/20 08:30:13;;;;;;;8.38;2.50;;;;;;;;;;4926624;29;20032;-87
2023/11/20 08:32:58;;;;;;;10.52;2.38;;;;;;;;;;4928312;29;20082;-86
2023/11/20 08:35:43;;;;;;;12.88;2.90;;;;;;;;;;4931497;29;20019;-87
2023/11/20 08:38:29;;;;;;;9.23;2.20;;;;;;;;;;4922963;29;20031;-86
2023/11/20 08:41:17;;;;;;;10.93;2.47;;;;;;;;;;4921870;29;20428;-84
2023/11/20 08:44:03;;;;;;;12.10;2.30;;;;;;;;;;4921076;29;20058;-84
2023/11/20 08:46:48;;;;;;;17.35;4.30;;;;;;;;;;4923580;29;20016;-81
2023/11/20 08:49:33;;;;;;;7.88;2.25;;;;;;;;;;4924866;29;20391;-82
2023/11/20 08:52:19;;;;;;;8.23;2.05;;;;;;;;;;4927111;29;20064;-83
2023/11/20 08:55:05;;;;;;;8.25;1.92;;;;;;;;;;4928107;29;20765;-81
2023/11/20 08:57:50;;;;;;;8.10;3.17;;;;;;;;;;4930070;29;20704;-82
2023/11/20 09:00:35;;;;;;;9.60;2.50;;;;;;;;;;4927463;29;20043;-81
2023/11/20 09:03:21;;;;;;;6.38;2.13;;;;;;;;;;4920151;29;20027;-80
2023/11/20 09:06:06;;;;;;;5.78;2.38;;;;;;;;;;4928337;29;20023;-81
2023/11/20 09:08:51;;;;;;;9.30;2.50;;;;;;;;;;4939930;28;20039;-82
2023/11/20 09:11:37;;;;;;;11.57;2.60;;;;;;;;;;4928157;29;20030;-83
2023/11/20 09:14:22;;;;;;;11.57;2.50;;;;;;;;;;4925528;29;20046;-83
2023/11/20 09:17:07;;;;;;;14.52;2.65;;;;;;;;;;4931599;29;20049;-82
2023/11/20 09:19:52;;;;;;;10.50;2.50;;;;;;;;;;4930556;29;20067;-82
2023/11/20 09:22:38;;;;;;;11.95;2.30;;;;;;;;;;4927391;29;20030;-81
2023/11/20 09:25:24;;;;;;;10.48;2.10;;;;;;;;;;4928857;29;20724;-82
2023/11/20 09:28:09;;;;;;;8.07;2.05;;;;;;;;;;4923270;29;20036;-81
2023/11/20 09:30:55;;;;;;;8.07;2.45;;;;;;;;;;4925235;29;20066;-80
2023/11/20 09:33:40;;;;;;;11.23;2.65;;;;;;;;;;4925325;29;20093;-80
2023/11/20 09:36:25;;;;;;;8.90;2.75;;;;;;;;;;4924727;29;20074;-80
2023/11/20 09:39:13;;;;;;;12.07;2.83;;;;;;;;;;4922992;29;20728;-82
2023/11/20 09:41:59;;;;;;;8.98;2.10;;;;;;;;;;4923134;29;20031;-81
2023/11/20 09:44:49;;;;;;;9.38;2.30;;;;;;;;;;4920120;29;20032;-80
2023/11/20 09:47:34;;;;;;;12.70;3.45;;;;;;;;;;4938059;28;20056;-82
2023/11/20 09:50:19;;;;;;;7.10;2.47;;;;;;;;;;4920159;29;20043;-82
2023/11/20 09:53:08;;;;;;;8.98;2.45;;;;;;;;;;4927146;29;20130;-82
2023/11/20 09:55:53;;;;;;;5.80;2.03;;;;;;;;;;4919689;29;20552;-82
2023/11/20 09:58:40;;;;;;;9.18;2.65;;;;;;;;;;4922689;29;20518;-82
2023/11/20 10:01:26;;;;;;;10.75;2.20;;;;;;;;;;4911632;29;20031;-81
2023/11/20 10:04:14;;;;;;;9.25;2.95;;;;;;;;;;4925632;28;20043;-82
2023/11/20 10:07:02;;;;;;;8.40;2.22;;;;;;;;;;4931210;28;20039;-82
2023/11/20 10:09:51;;;;;;;9.68;2.72;;;;;;;;;;4922593;29;20028;-83
2023/11/20 10:12:36;;;;;;;9.13;2.58;;;;;;;;;;4941318;29;20079;-84
2023/11/20 10:15:22;;;;;;;11.73;2.60;;;;;;;;;;4933044;29;20028;-84
2023/11/20 10:18:07;;;;;;;9.82;2.97;;;;;;;;;;4928302;29;20419;-84
2023/11/20 10:20:52;;;;;;;9.45;2.28;;;;;;;;;;4896374;29;20122;-83
2023/11/20 10:23:39;;;;;;;11.68;2.65;;;;;;;;;;4916831;29;20406;-83
2023/11/20 10:26:24;;;;;;;11.95;3.03;;;;;;;;;;4925154;29;20386;-83
2023/11/20 10:29:10;;;;;;;9.10;2.65;;;;;;;;;;4922442;29;20126;-83
2023/11/20 10:31:57;;;;;;;7.50;2.03;;;;;;;;;;4920339;29;20028;-82
2023/11/20 10:34:43;;;;;;;8.02;2.20;;;;;;;;;;4910426;29;20735;-83
2023/11/20 10:37:29;;;;;;;7.95;2.22;;;;;;;;;;4923641;29;20402;-84
2023/11/20 10:40:14;;;;;;;10.10;2.22;;;;;;;;;;4911625;29;20031;-84
2023/11/20 10:42:59;;;;;;;8.38;2.20;;;;;;;;;;4898418;29;20028;-83
2023/11/20 10:45:44;;;;;;;8.85;2.80;;;;;;;;;;4932866;29;20083;-85
2023/11/20 10:48:33;;;;;;;8.82;2.30;;;;;;;;;;4927255;29;20135;-84
2023/11/20 10:51:19;;;;;;;14.57;2.40;;;;;;;;;;4924114;29;20032;-84
2023/11/20 10:54:11;;;;;;;11.38;3.17;;;;;;;;;;4928915;29;20035;-84
2023/11/20 10:57:00;;;;;;;7.50;2.13;;;;;;;;;;4900226;29;20130;-84
2023/11/20 10:59:46;;;;;;;5.28;2.60;;;;;;;;;;4923890;29;20043;-85
2023/11/20 11:02:31;;;;;;;5.40;2.10;;;;;;;;;;4922396;29;20063;-82
2023/11/20 11:05:19;;;;;;;7.95;1.67;;;;;;;;;;4902370;29;20031;-85
2023/11/20 11:08:06;;;;;;;8.18;2.25;;;;;;;;;;4918203;29;20059;-87
2023/11/20 11:10:52;;;;;;;6.80;2.15;;;;;;;;;;4923397;29;20023;-86
2023/11/20 11:13:38;;;;;;;7.13;1.88;;;;;;;;;;4925005;29;20498;-86
2023/11/20 11:16:28;;;;;;;9.50;2.97;;;;;;;;;;4922376;29;20031;-82
2023/11/20 11:19:15;;;;;;;10.30;2.47;;;;;;;;;;4926900;29;20047;-81
2023/11/20 11:22:01;;;;;;;10.43;2.92;;;;;;;;;;4928680;29;20028;-83
2023/11/20 11:24:47;;;;;;;6.75;2.47;;;;;;;;;;4925748;29;20016;-82
2023/11/20 11:27:37;;;;;;;6.13;2.20;;;;;;;;;;4926631;29;20054;-83
2023/11/20 11:30:23;;;;;;;8.80;2.30;;;;;;;;;;4911778;29;20057;-82
2023/11/20 11:33:24;;;;;;;4.80;1.98;;;;;;;;;;4926410;28;20027;-83
2023/11/20 11:36:23;;;;;;;10.13;1.52;;;;;;;;;;4925046;29;20023;-87
2023/11/20 11:39:15;;;;;;;4.38;1.42;;;;;;;;;;4918787;29;20023;-83
2023/11/20 11:42:01;;;;;;;4.28;1.48;;;;;;;;;;4928283;29;20059;-85
2023/11/20 11:45:03;;;;;;;4.15;1.30;;;;;;;;;;4927931;29;20728;-85
2023/11/20 11:47:48;;;;;;;3.33;1.17;;;;;;;;;;4923465;29;20043;-86
2023/11/20 11:50:34;;;;;;;4.80;1.35;;;;;;;;;;4930879;29;20121;-85
2023/11/20 11:53:19;;;;;;;3.28;1.10;;;;;;;;;;4923544;29;20039;-84
2023/11/20 11:56:12;;;;;;;3.53;0.95;;;;;;;;;;4927230;29;20483;-84
2023/11/20 11:58:57;;;;;;;3.95;1.50;;;;;;;;;;4911860;29;20036;-85
2023/11/20 12:01:49;;;;;;;6.00;1.20;;;;;;;;;;4927471;29;20032;-87
2023/11/20 12:04:56;;;;;;;3.13;1.17;;;;;;;;;;4927350;29;20036;-88
2023/11/20 12:07:43;;;;;;;4.22;1.08;;;;;;;;;;4937657;29;20042;-85
2023/11/20 12:10:39;;;;;;;3.00;1.15;;;;;;;;;;4907386;29;20071;-86
2023/11/20 12:13:26;;;;;;;5.35;1.25;;;;;;;;;;4920066;29;20020;-85
2023/11/20 12:16:13;;;;;;;3.08;0.90;;;;;;;;;;4923879;29;20102;-85
2023/11/20 12:19:00;;;;;;;5.05;1.23;;;;;;;;;;4927788;29;20039;-86
2023/11/20 12:21:45;;;;;;;2.60;1.10;;;;;;;;;;4928071;29;20112;-87
2023/11/20 12:24:30;;;;;;;3.50;1.17;;;;;;;;;;4919302;29;20115;-86
2023/11/20 12:27:16;;;;;;;4.72;1.45;;;;;;;;;;4924781;29;20039;-86
2023/11/20 12:30:02;;;;;;;3.50;1.35;;;;;;;;;;4941336;29;20031;-85
2023/11/20 12:32:47;;;;;;;5.30;1.40;;;;;;;;;;4924799;29;20035;-85
2023/11/20 12:35:34;;;;;;;4.00;1.25;;;;;;;;;;4922445;29;20040;-85
2023/11/20 12:38:19;;;;;;;4.10;1.40;;;;;;;;;;4919327;29;20119;-84
2023/11/20 12:41:09;;;;;;;3.58;1.55;;;;;;;;;;4941718;29;20031;-83
2023/11/20 12:43:54;;;;;;;2.65;1.20;;;;;;;;;;4925576;29;20028;-84
2023/11/20 12:46:39;;;;;;;2.35;1.08;;;;;;;;;;4926034;29;20047;-84
2023/11/20 12:49:26;;;;;;;4.45;1.30;;;;;;;;;;4927646;29;20067;-83
2023/11/20 12:52:11;;;;;;;4.80;1.80;;;;;;;;;;4940842;29;20031;-84
2023/11/20 12:54:57;;;;;;;4.38;1.55;;;;;;;;;;4911038;29;20079;-84
2023/11/20 12:57:42;;;;;;;3.05;1.70;;;;;;;;;;4919977;29;20028;-86
2023/11/20 13:00:28;;;;;;;3.85;1.55;;;;;;;;;;4919193;29;20020;-86
2023/11/20 13:03:14;;;;;;;3.97;1.95;;;;;;;;;;4925155;29;20019;-86
2023/11/20 13:06:02;;;;;;;6.72;1.75;;;;;;;;;;4923304;29;20443;-84
2023/11/20 13:08:48;;;;;;;5.05;1.60;;;;;;;;;;4927234;29;20031;-85
2023/11/20 13:11:33;;;;;;;3.92;1.35;;;;;;;;;;4921628;29;20031;-84
2023/11/20 13:14:19;;;;;;;5.22;2.08;;;;;;;;;;4925064;29;20046;-85
2023/11/20 13:17:09;;;;;;;5.30;1.77;;;;;;;;;;4918904;29;20187;-83
2023/11/20 13:19:55;;;;;;;5.28;1.40;;;;;;;;;;4919536;29;20070;-83
2023/11/20 13:22:43;;;;;;;4.30;1.30;;;;;;;;;;4921134;28;20463;-84
2023/11/20 13:25:29;;;;;;;4.25;1.38;;;;;;;;;;4923048;29;20102;-83
2023/11/20 13:28:16;;;;;;;8.65;1.98;;;;;;;;;;4922570;29;20064;-86
2023/11/20 13:31:09;;;;;;;4.50;1.50;;;;;;;;;;4939917;28;20443;-85
2023/11/20 13:33:54;;;;;;;2.97;1.35;;;;;;;;;;4921232;29;20051;-84
2023/11/20 13:36:39;;;;;;;3.17;1.15;;;;;;;;;;4919073;29;20569;-85
2023/11/20 13:39:24;;;;;;;3.55;1.55;;;;;;;;;;4925633;29;20103;-85
2023/11/20 13:42:10;;;;;;;8.32;2.10;;;;;;;;;;4933340;29;20038;-84
2023/11/20 13:44:56;;;;;;;6.10;1.75;;;;;;;;;;4924687;29;20246;-84
2023/11/20 13:47:41;;;;;;;4.18;1.27;;;;;;;;;;4920535;29;20561;-83
2023/11/20 13:50:27;;;;;;;3.33;1.27;;;;;;;;;;4922892;29;20048;-83
2023/11/20 13:53:12;;;;;;;3.33;1.25;;;;;;;;;;4926953;29;20044;-84
2023/11/20 13:55:58;;;;;;;6.28;1.75;;;;;;;;;;4927296;29;20407;-83
2023/11/20 13:58:44;;;;;;;7.00;1.17;;;;;;;;;;4943043;28;20040;-85
2023/11/20 14:01:29;;;;;;;6.07;1.27;;;;;;;;;;4923858;29;20035;-86
2023/11/20 14:04:16;;;;;;;4.00;1.50;;;;;;;;;;4923073;29;20032;-87
2023/11/20 14:07:02;;;;;;;3.08;1.65;;;;;;;;;;4923554;29;20137;-83
2023/11/20 14:09:47;;;;;;;2.90;1.10;;;;;;;;;;4941148;28;20126;-85
2023/11/20 14:12:32;;;;;;;5.03;1.45;;;;;;;;;;4927759;29;20092;-84
2023/11/20 14:15:17;;;;;;;4.68;1.08;;;;;;;;;;4923991;29;20686;-85
2023/11/20 14:18:04;;;;;;;2.35;1.10;;;;;;;;;;4926837;29;20056;-87
2023/11/20 14:20:52;;;;;;;7.82;1.25;;;;;;;;;;4931564;29;20057;-86
2023/11/20 14:23:39;;;;;;;3.65;1.23;;;;;;;;;;4925611;29;20368;-85
2023/11/20 14:26:24;;;;;;;3.10;1.10;;;;;;;;;;4928469;29;20081;-83
2023/11/20 14:29:09;;;;;;;5.38;1.17;;;;;;;;;;4925816;29;20024;-85
2023/11/20 14:31:54;;;;;;;4.75;1.67;;;;;;;;;;4919879;29;20032;-85
2023/11/20 14:34:40;;;;;;;2.38;1.05;;;;;;;;;;4921970;29;20043;-85
2023/11/20 14:37:25;;;;;;;3.70;1.13;;;;;;;;;;4923371;29;20062;-84
2023/11/20 14:40:11;;;;;;;4.07;0.80;;;;;;;;;;4931043;29;20754;-85
2023/11/20 14:42:57;;;;;;;3.67;1.40;;;;;;;;;;4928566;29;20066;-85
2023/11/20 14:45:42;;;;;;;2.33;1.10;;;;;;;;;;4922349;29;20572;-84
2023/11/20 14:48:28;;;;;;;2.42;1.00;;;;;;;;;;5066322;23;20050;-84
2023/11/20 14:51:19;;;;;;;2.20;1.30;;;;;;;;;;4970495;28;20038;-84
2023/11/20 14:54:06;;;;;;;2.42;0.93;;;;;;;;;;4971229;28;20068;-85
2023/11/20 14:56:51;;;;;;;6.45;1.40;;;;;;;;;;4966120;28;20034;-85
2023/11/20 14:59:36;;;;;;;4.35;1.38;;;;;;;;;;4969841;28;20048;-84
2023/11/20 15:02:22;;;;;;;4.22;1.10;;;;;;;;;;4969937;28;20444;-85
2023/11/20 15:05:07;;;;;;;6.03;1.52;;;;;;;;;;4968212;28;20284;-83
2023/11/20 15:07:53;;;;;;;4.22;1.30;;;;;;;;;;4966087;28;20026;-83
2023/11/20 15:10:38;;;;;;;2.42;1.10;;;;;;;;;;4952906;28;20380;-84
2023/11/20 15:13:23;;;;;;;3.63;1.35;;;;;;;;;;4960780;28;20037;-83
2023/11/20 15:16:10;;;;;;;5.00;1.48;;;;;;;;;;4947003;28;20477;-84
2023/11/20 15:18:55;;;;;;;1.90;0.88;;;;;;;;;;4951069;28;20334;-84
2023/11/20 15:21:40;;;;;;;3.80;1.88;;;;;;;;;;4956518;28;20023;-85
2023/11/20 15:24:26;;;;;;;4.22;1.20;;;;;;;;;;4953239;28;20038;-84
2023/11/20 15:27:11;;;;;;;4.80;1.75;;;;;;;;;;4954690;28;20030;-84
2023/11/20 15:29:56;;;;;;;4.10;1.20;;;;;;;;;;4953382;28;20034;-82
2023/11/20 15:32:42;;;;;;;3.80;1.42;;;;;;;;;;4952603;28;20038;-84
2023/11/20 15:35:27;;;;;;;5.88;1.63;;;;;;;;;;4954038;28;20031;-83
2023/11/20 15:38:13;;;;;;;6.13;1.23;;;;;;;;;;4957808;28;20026;-82
2023/11/20 15:40:58;;;;;;;4.90;1.38;;;;;;;;;;4953177;28;20031;-84
2023/11/20 15:43:43;;;;;;;4.28;1.60;;;;;;;;;;4953223;28;20026;-84
2023/11/20 15:46:28;;;;;;;5.25;1.52;;;;;;;;;;4959185;28;20026;-85
2023/11/20 15:49:14;;;;;;;4.32;1.15;;;;;;;;;;4963178;28;20058;-86
2023/11/20 15:52:00;;;;;;;6.38;1.98;;;;;;;;;;4976069;28;20054;-84
2023/11/20 15:54:46;;;;;;;2.20;1.25;;;;;;;;;;4976388;28;20018;-86
2023/11/20 15:57:31;;;;;;;5.93;1.63;;;;;;;;;;4977441;28;20022;-87
2023/11/20 16:00:16;;;;;;;6.80;1.67;;;;;;;;;;4971817;28;20050;-85
2023/11/20 16:03:01;;;;;;;4.68;1.52;;;;;;;;;;4936293;28;20047;-86
2023/11/20 16:05:47;;;;;;;6.57;1.65;;;;;;;;;;4950613;28;20095;-86
2023/11/20 16:08:33;;;;;;;5.15;1.27;;;;;;;;;;4948899;28;20031;-86
2023/11/20 16:11:18;;;;;;;6.13;1.10;;;;;;;;;;4954455;28;20033;-85
2023/11/20 16:14:04;;;;;;;3.97;1.70;;;;;;;;;;4952082;28;20042;-84
2023/11/20 16:16:50;;;;;;;2.47;1.42;;;;;;;;;;4947599;28;20778;-84
2023/11/20 16:19:35;;;;;;;4.90;1.45;;;;;;;;;;4951429;28;20019;-84
2023/11/20 16:22:21;;;;;;;4.53;1.58;;;;;;;;;;4954012;28;20031;-86
2023/11/20 16:25:09;;;;;;;3.08;1.33;;;;;;;;;;4950263;28;20113;-86
2023/11/20 16:27:54;;;;;;;5.00;1.45;;;;;;;;;;4947743;28;20031;-84
2023/11/20 16:30:39;;;;;;;6.03;1.40;;;;;;;;;;4948895;28;20510;-85
2023/11/20 16:33:24;;;;;;;4.00;1.65;;;;;;;;;;4953016;28;20030;-87